Detall de PIREP

Printer-friendly versionPDF version

[2011/05/15 16:12:00]
Flight IATA:CT1003
Pilot Number:026
Company ICAO:CAT
Aircraft Type:DC85/A
PAX:132
Departing Airport: LFSB
Destination Airport: LEPA
Alternate Airport:LEMH
Online: VATSIM
Route:LUMEL/N0290F190 G434 MOROK/N0390F330 UN852 VERSO UL129 LUNIK
Flight Level:F330
No Slew and time accel
No pause
Crash detect
Detect pilot in Cockpit between each 30 and 45 minutes
16:12 Zero fuel Weight: 179940 Lbs, Fuel Weight: 28013 Lbs
16:12 VATSIM:LFSB 151600Z 10004KT 070V140 9999 VCSH FEW020 FEW035CB SCT075 11/07 Q1024 RETSRA NOSIG
16:12 VATSIM:LEPA 151600Z 23014KT 200V260 9999 FEW025 SCT050 21/12 Q1023 NOSIG
16:12 VOICE CATALONIAN / CPT LEPA
16:15 Parking Brakes off
16:25 Take-off
16:25 Take off Weight: 206781 Lbs
16:25 Wind: 097º @ 004 Knots Heading: 153º
16:25 POS N47º 35´ 51´´ E007º 31´ 26´´
16:25 Flaps:2 at 174 Knots
16:25 Gear Up: 180 Knots
16:26 Flaps:1 at 202 Knots
16:27 Flaps:0 at 202 Knots
16:40 Wind:322º@024 Knots Heading: 221º Ground Speed: 438 Knots Altitude 28448 ft
16:44 TOC
16:44 Fuel Weight: 21237 Lb
16:55 Wind:359º@047 Knots Heading: 194º Ground Speed: 527 Knots Altitude 33264 ft
17:10 Wind:336º@086 Knots Heading: 216º Ground Speed: 528 Knots Altitude 33202 ft
17:14 TOD
17:14 Fuel Weight: 14141 Lb
17:25 Wind:308º@012 Knots Heading: 203º Ground Speed: 399 Knots Altitude 16368 ft
17:40 Wind:224º@022 Knots Heading: 185º Ground Speed: 245 Knots Altitude 7204 ft
17:40 Gear Down: 238 Knots
17:43 Flaps:1 at 191 Knots
17:44 Flaps:2 at 164 Knots
17:45 Flaps:3 at 158 Knots
17:46 Flaps:4 at 157 Knots
17:46 Flaps:5 at 141 Knots
17:47 TouchDown:Rate -305 ft/min Speed: 116 Knots
17:47 VATSIM:LEPA 151730Z 22012KT 9999 FEW025 20/12 Q1024 NOSIG
17:47 Land
17:47 Wind:223º@012 Knots
17:47 Heading: 237º
17:47 FlightDuration: 01:22
17:47 Landing Weight: 190119 Lbs
17:47 POS N39º 32´ 59´´ E002º 44´ 58´´
17:55 Parking brakes on
17:55 Block to Block Duration: 01:40
17:55 Final Fuel: 9664 Lbls
17:55 Spent Fuel: 18348 Lbls
17:55 Flight Length: 556 NM
17:55 TOD Land Length: 175 NM

Exportar CSV

Powered by Drupal - Modified by Danger4k